Time;durP1;ratioP1;P1;durP2;ratioP2;P2;SDS_P1;SDS_P2;PMS_P1;PMS_P2;Temp;Humidity;BMP_temperature;BMP_pressure;BME280_temperature;BME280_humidity;BME280_pressure;Samples;Min_cycle;Max_cycle;Signal;HPM_P1;HPM_P2
2022/10/09 00:01:02;;;;;;;14.70;9.48;;;;;;;11.77;69.67;101546.00;4148735;28;20050;-64
2022/10/09 00:03:04;;;;;;;14.05;8.23;;;;;;;11.69;70.15;101546.69;4149147;28;20045;-64
2022/10/09 00:05:09;;;;;;;38.45;20.27;;;;;;;11.62;70.00;101544.78;4156360;28;20040;-64
2022/10/09 00:07:12;;;;;;;44.90;27.30;;;;;;;11.60;69.75;101542.97;4148779;28;20411;-68
2022/10/09 00:09:15;;;;;;;38.03;22.55;;;;;;;11.58;69.49;101534.22;4148751;28;20042;-65
2022/10/09 00:11:20;;;;;;;20.37;11.90;;;;;;;11.58;69.53;101544.63;4131403;28;20035;-65
2022/10/09 00:13:23;;;;;;;17.17;10.02;;;;;;;11.52;70.00;101530.63;4147821;28;20045;-65
2022/10/09 00:15:26;;;;;;;16.95;9.20;;;;;;;11.52;69.36;101529.72;4115215;28;20057;-66
2022/10/09 00:17:31;;;;;;;12.20;6.57;;;;;;;11.50;69.39;101532.28;4154903;28;20065;-64
2022/10/09 00:19:33;;;;;;;42.20;25.95;;;;;;;11.47;69.41;101532.19;4151169;28;20042;-64
2022/10/09 00:21:38;;;;;;;34.83;20.20;;;;;;;11.49;69.39;101533.13;4156554;28;20033;-64
2022/10/09 00:23:40;;;;;;;14.38;9.20;;;;;;;11.47;69.43;101531.31;4147641;28;20412;-65
2022/10/09 00:25:52;;;;;;;10.95;5.90;;;;;;;11.42;69.62;101532.91;4148768;28;20412;-64
2022/10/09 00:27:56;;;;;;;10.88;5.60;;;;;;;11.39;69.93;101535.44;4148484;28;20073;-64
2022/10/09 00:29:59;;;;;;;14.80;6.35;;;;;;;11.40;70.30;101540.66;4115092;28;20046;-64
2022/10/09 00:32:02;;;;;;;18.48;8.50;;;;;;;11.42;69.85;101539.00;4164081;28;20033;-65
2022/10/09 00:34:05;;;;;;;24.90;12.38;;;;;;;11.39;69.97;101530.22;4153318;28;20046;-64
2022/10/09 00:36:10;;;;;;;27.05;14.48;;;;;;;11.33;70.05;101526.63;4153918;28;20053;-64
2022/10/09 00:38:14;;;;;;;17.42;9.10;;;;;;;11.28;69.37;101524.72;4149207;28;20037;-66
2022/10/09 00:40:17;;;;;;;13.10;7.10;;;;;;;11.29;69.53;101523.91;4119416;28;20081;-64
2022/10/09 00:42:20;;;;;;;13.70;6.60;;;;;;;11.30;69.02;101530.84;4147196;28;20046;-64
2022/10/09 00:44:47;;;;;;;11.90;5.72;;;;;;;11.26;69.30;101529.88;4134736;28;20046;-64
2022/10/09 00:46:52;;;;;;;11.02;6.07;;;;;;;11.21;69.15;101533.19;4130850;28;20125;-64
2022/10/09 00:49:03;;;;;;;10.95;6.18;;;;;;;11.19;69.32;101520.13;4154824;28;20138;-64
2022/10/09 00:51:06;;;;;;;12.02;5.88;;;;;;;11.14;70.04;101522.59;4153911;28;20439;-64
2022/10/09 00:53:12;;;;;;;14.13;6.15;;;;;;;11.11;70.39;101522.53;4130220;28;20501;-64
2022/10/09 00:55:17;;;;;;;8.98;5.80;;;;;;;11.12;69.90;101523.41;4156348;28;20036;-64
2022/10/09 00:57:20;;;;;;;9.05;5.10;;;;;;;11.14;69.82;101521.69;4156942;28;20484;-64
2022/10/09 00:59:23;;;;;;;9.77;5.63;;;;;;;11.13;70.02;101520.84;4148105;28;20042;-64
2022/10/09 01:01:26;;;;;;;12.57;6.22;;;;;;;11.13;69.38;101523.44;4157640;28;20064;-64
2022/10/09 01:03:29;;;;;;;17.83;6.25;;;;;;;11.12;69.96;101513.84;4155303;28;20061;-64
2022/10/09 01:05:43;;;;;;;10.43;5.88;;;;;;;11.10;70.25;101515.53;4130751;28;20114;-64
2022/10/09 01:07:50;;;;;;;12.50;6.55;;;;;;;11.10;70.18;101515.53;4148057;28;20038;-64
2022/10/09 01:09:59;;;;;;;13.30;5.70;;;;;;;11.12;70.08;101505.19;4153056;28;20056;-64
2022/10/09 01:12:12;;;;;;;11.05;5.50;;;;;;;11.13;69.90;101515.63;4146713;28;20042;-64
2022/10/09 01:14:22;;;;;;;13.88;5.53;;;;;;;11.12;69.81;101513.84;4146553;28;20041;-64
2022/10/09 01:16:28;;;;;;;12.43;5.82;;;;;;;11.12;70.08;101512.97;4130903;28;20049;-64
2022/10/09 01:18:38;;;;;;;10.63;5.53;;;;;;;11.13;69.70;101510.44;4155129;28;20037;-64
2022/10/09 01:20:46;;;;;;;9.82;5.35;;;;;;;11.13;69.67;101510.44;4153961;28;20038;-64
2022/10/09 01:23:03;;;;;;;10.82;5.32;;;;;;;11.15;69.55;101502.66;4153883;28;20033;-64
2022/10/09 01:25:10;;;;;;;15.68;6.00;;;;;;;11.13;69.50;101502.63;4149173;28;20108;-64
2022/10/09 01:27:17;;;;;;;9.50;4.68;;;;;;;11.12;69.81;101503.44;4146437;28;20046;-64
2022/10/09 01:29:23;;;;;;;12.35;6.35;;;;;;;11.10;70.54;101501.66;4164000;28;20502;-64
2022/10/09 01:31:30;;;;;;;14.20;5.85;;;;;;;11.09;70.04;101507.69;4146414;28;20372;-64
2022/10/09 01:33:33;;;;;;;9.98;5.07;;;;;;;11.06;70.82;101500.69;4156765;28;20514;-64
2022/10/09 01:35:37;;;;;;;13.30;5.93;;;;;;;11.08;69.71;101504.22;4137681;28;20049;-64
2022/10/09 01:37:42;;;;;;;11.82;5.57;;;;;;;11.05;70.22;101496.28;4161208;28;20506;-64
2022/10/09 01:39:47;;;;;;;10.80;5.55;;;;;;;11.04;70.71;101497.16;4163584;28;20045;-64
2022/10/09 01:41:52;;;;;;;14.55;6.45;;;;;;;11.02;70.69;101495.34;4163714;28;20041;-64
2022/10/09 01:43:56;;;;;;;14.52;6.80;;;;;;;11.00;70.91;101500.50;4145621;28;20042;-64
2022/10/09 01:46:18;;;;;;;10.68;5.00;;;;;;;11.03;69.91;101498.00;4146528;28;20303;-64
2022/10/09 01:48:24;;;;;;;9.93;5.70;;;;;;;11.09;70.06;101494.69;4136438;28;20045;-64
2022/10/09 01:50:32;;;;;;;13.05;5.95;;;;;;;11.05;70.18;101490.22;4155242;28;20041;-64
2022/10/09 01:52:43;;;;;;;12.85;4.72;;;;;;;11.02;69.79;101492.75;4154977;28;20040;-64
2022/10/09 01:54:58;;;;;;;11.43;5.47;;;;;;;10.96;70.08;101490.84;4162896;28;20049;-64
2022/10/09 01:57:04;;;;;;;11.77;5.18;;;;;;;10.92;70.29;101491.59;4145942;28;20037;-64
2022/10/09 01:59:13;;;;;;;12.35;5.93;;;;;;;10.91;70.44;101488.09;4163783;28;20038;-64
2022/10/09 02:01:20;;;;;;;15.48;5.88;;;;;;;10.88;69.67;101487.13;4158969;28;20073;-64
2022/10/09 02:03:26;;;;;;;13.75;6.45;;;;;;;10.85;70.53;101484.44;4144083;28;20042;-64
2022/10/09 02:05:31;;;;;;;11.40;6.00;;;;;;;10.84;70.16;101488.75;4159683;28;20045;-64
2022/10/09 02:07:34;;;;;;;8.70;4.50;;;;;;;10.83;70.21;101481.78;4163527;28;20037;-64
2022/10/09 02:09:39;;;;;;;14.07;5.75;;;;;;;10.81;69.94;101480.88;4163479;28;20046;-64
2022/10/09 02:11:44;;;;;;;;;;;;;;;10.65;70.29;101482.13;4146429;28;20096;-64
2022/10/09 02:13:51;;;;;;;11.32;5.85;;;;;;;10.68;70.57;101479.63;4162733;28;20008;-64
2022/10/09 02:16:01;;;;;;;11.38;5.25;;;;;;;10.70;70.68;101479.66;4146000;28;20057;-64
2022/10/09 02:18:09;;;;;;;11.32;5.03;;;;;;;10.67;70.62;101472.63;4153170;28;20120;-64
2022/10/09 02:20:19;;;;;;;8.32;5.13;;;;;;;10.68;69.89;101471.81;4148521;28;20070;-64
2022/10/09 02:22:26;;;;;;;10.65;6.07;;;;;;;10.75;70.11;101468.56;4143099;28;20606;-64
2022/10/09 02:24:29;;;;;;;10.70;5.20;;;;;;;10.81;69.46;101465.25;4155902;28;20034;-64
2022/10/09 02:26:32;;;;;;;12.73;5.53;;;;;;;10.87;69.85;101467.16;4166476;28;20084;-64
2022/10/09 02:28:36;;;;;;;13.10;6.18;;;;;;;10.95;69.52;101469.16;4166628;28;20038;-64
2022/10/09 02:31:11;;;;;;;12.02;6.32;;;;;;;10.99;69.60;101463.22;4138740;28;20036;-64
2022/10/09 02:33:14;;;;;;;12.15;5.38;;;;;;;10.99;69.06;101460.59;4137395;28;20516;-65
2022/10/09 02:35:17;;;;;;;13.18;6.10;;;;;;;11.02;68.72;101462.38;4154189;28;20048;-64
2022/10/09 02:37:20;;;;;;;15.43;6.45;;;;;;;11.03;69.51;101458.97;4147099;28;20091;-65
2022/10/09 02:39:23;;;;;;;12.65;6.47;;;;;;;11.07;68.95;101465.13;4143902;28;20070;-65
2022/10/09 02:41:26;;;;;;;11.45;5.68;;;;;;;11.06;68.54;101455.56;4162753;28;20103;-65
2022/10/09 02:43:29;;;;;;;13.82;6.40;;;;;;;11.13;68.43;101457.50;4165310;28;20064;-65
2022/10/09 02:45:32;;;;;;;12.23;5.50;;;;;;;11.09;68.66;101453.91;4164754;28;20038;-65
2022/10/09 02:47:36;;;;;;;9.75;5.53;;;;;;;11.09;68.39;101451.31;4157755;28;20492;-65
2022/10/09 02:49:38;;;;;;;11.13;6.18;;;;;;;11.04;68.26;101452.91;4148406;28;20069;-64
2022/10/09 02:51:41;;;;;;;12.23;5.25;;;;;;;11.00;68.21;101457.13;4148431;28;20092;-64
2022/10/09 02:53:44;;;;;;;13.95;5.93;;;;;;;11.00;69.17;101451.94;4147735;28;20041;-64
2022/10/09 02:55:47;;;;;;;13.45;7.22;;;;;;;10.99;68.97;101463.22;4165616;28;20486;-65
2022/10/09 02:57:50;;;;;;;11.10;6.45;;;;;;;10.94;68.33;101456.97;4165987;28;20049;-64
2022/10/09 02:59:53;;;;;;;14.23;5.68;;;;;;;10.95;68.29;101458.75;4144177;28;20096;-65
2022/10/09 03:01:55;;;;;;;13.23;6.10;;;;;;;11.00;67.93;101458.88;4152767;28;20041;-65
2022/10/09 03:04:00;;;;;;;10.20;5.53;;;;;;;10.96;68.83;101455.28;4135655;28;20034;-64
2022/10/09 03:06:05;;;;;;;18.00;5.43;;;;;;;11.02;68.50;101454.56;4164349;28;20049;-64
2022/10/09 03:08:08;;;;;;;9.98;5.13;;;;;;;10.99;68.73;101452.78;4131983;28;20146;-64
2022/10/09 03:10:10;;;;;;;14.15;5.95;;;;;;;10.92;68.33;101452.56;4165340;28;20406;-64
2022/10/09 03:12:14;;;;;;;10.88;4.65;;;;;;;10.86;68.71;101453.25;4148121;28;20056;-65
2022/10/09 03:14:17;;;;;;;14.80;5.53;;;;;;;10.90;68.41;101443.84;4162487;28;20041;-65
2022/10/09 03:16:22;;;;;;;11.27;5.93;;;;;;;10.94;68.06;101448.28;4160880;28;20064;-65
2022/10/09 03:18:25;;;;;;;12.02;5.43;;;;;;;10.89;68.07;101445.53;4162210;28;20045;-65
2022/10/09 03:20:30;;;;;;;11.43;5.40;;;;;;;10.83;69.42;101454.06;4162908;28;20507;-65
2022/10/09 03:22:33;;;;;;;10.55;4.65;;;;;;;10.77;69.43;101451.28;4164347;28;20043;-65
2022/10/09 03:24:36;;;;;;;8.82;4.90;;;;;;;10.79;69.60;101446.09;4156548;28;20087;-65
2022/10/09 03:26:39;;;;;;;10.50;5.60;;;;;;;10.77;69.49;101453.88;4165062;28;20073;-65
2022/10/09 03:28:44;;;;;;;12.77;5.60;;;;;;;10.73;69.36;101456.34;4165534;28;20399;-64
2022/10/09 03:30:47;;;;;;;12.10;6.13;;;;;;;10.81;68.45;101450.53;4164441;28;20041;-64
2022/10/09 03:32:50;;;;;;;15.05;5.63;;;;;;;10.75;69.21;101458.16;4155093;28;20042;-65
2022/10/09 03:34:53;;;;;;;14.55;5.40;;;;;;;10.78;68.61;101459.97;4164487;28;20091;-65
2022/10/09 03:36:57;;;;;;;14.13;5.93;;;;;;;10.80;68.80;101453.09;4147233;28;20049;-65
2022/10/09 03:39:00;;;;;;;10.63;5.07;;;;;;;10.74;68.52;101458.97;4147900;28;20042;-65
2022/10/09 03:41:05;;;;;;;10.55;4.97;;;;;;;10.75;69.04;101465.97;4147774;28;20033;-65
2022/10/09 03:43:08;;;;;;;12.05;5.25;;;;;;;10.66;69.05;101452.69;4164784;28;20190;-65
2022/10/09 03:45:11;;;;;;;10.27;5.22;;;;;;;10.69;68.31;101451.88;4144826;28;20030;-65
2022/10/09 03:47:14;;;;;;;11.80;5.63;;;;;;;10.69;68.86;101450.19;4162444;28;20092;-64
2022/10/09 03:49:17;;;;;;;10.30;4.75;;;;;;;10.71;67.91;101451.09;4158756;28;20038;-64
2022/10/09 03:51:20;;;;;;;8.40;4.25;;;;;;;10.67;68.20;101459.63;4140879;28;20136;-64
2022/10/09 03:53:24;;;;;;;10.52;4.10;;;;;;;10.68;68.78;101448.41;4146674;28;20042;-64
2022/10/09 03:55:26;;;;;;;8.80;4.60;;;;;;;10.62;68.81;101456.03;4164963;28;20044;-64
2022/10/09 03:57:29;;;;;;;11.05;4.72;;;;;;;10.57;68.87;101449.78;4165150;28;20380;-64
2022/10/09 03:59:32;;;;;;;9.75;4.65;;;;;;;10.58;68.90;101456.78;4158039;28;20034;-65
2022/10/09 04:01:35;;;;;;;12.02;5.07;;;;;;;10.53;69.54;101450.53;4159844;28;20073;-66
2022/10/09 04:03:38;;;;;;;8.30;4.10;;;;;;;10.49;69.63;101454.78;4163496;28;20076;-64
2022/10/09 04:05:41;;;;;;;9.65;4.65;;;;;;;10.47;69.74;101453.84;4145401;28;20042;-64
2022/10/09 04:07:44;;;;;;;11.98;5.45;;;;;;;10.51;69.50;101462.63;4158819;28;20099;-63
2022/10/09 04:09:48;;;;;;;9.65;5.00;;;;;;;10.51;68.80;101460.03;4163280;28;20120;-64
2022/10/09 04:11:51;;;;;;;11.88;4.55;;;;;;;10.46;69.30;101457.28;4164673;28;20072;-64
2022/10/09 04:13:54;;;;;;;11.45;5.68;;;;;;;10.54;68.54;101453.22;4162542;28;20041;-64
2022/10/09 04:15:57;;;;;;;9.10;4.93;;;;;;;10.50;69.17;101450.44;4147124;28;20080;-63
2022/10/09 04:18:00;;;;;;;12.88;5.82;;;;;;;10.45;68.75;101456.41;4160018;28;20128;-64
2022/10/09 04:20:03;;;;;;;10.60;5.38;;;;;;;10.43;69.01;101455.47;4159562;28;20060;-64
2022/10/09 04:22:06;;;;;;;9.00;5.28;;;;;;;10.38;69.84;101457.06;4130973;28;20043;-64
2022/10/09 04:24:09;;;;;;;8.55;4.20;;;;;;;10.39;69.73;101452.72;4146262;28;20053;-64
2022/10/09 04:26:14;;;;;;;15.18;6.10;;;;;;;10.38;69.61;101457.06;4139231;28;20506;-64
2022/10/09 04:28:16;;;;;;;12.32;5.50;;;;;;;10.27;69.92;101450.59;4159425;28;20090;-64
2022/10/09 04:30:19;;;;;;;12.32;4.80;;;;;;;10.28;69.94;101449.78;4158419;28;20045;-64
2022/10/09 04:32:22;;;;;;;9.45;4.95;;;;;;;10.24;69.98;101451.38;4142971;28;20108;-63
2022/10/09 04:34:25;;;;;;;9.93;4.85;;;;;;;10.19;69.84;101446.88;4141611;28;20040;-63
2022/10/09 04:36:28;;;;;;;12.68;4.97;;;;;;;10.28;69.46;101452.38;4151521;28;20041;-64
2022/10/09 04:38:31;;;;;;;15.15;6.70;;;;;;;10.27;69.62;101451.47;4154712;28;20045;-64
2022/10/09 04:40:34;;;;;;;9.40;4.55;;;;;;;10.26;69.96;101454.03;4154781;28;20522;-63
2022/10/09 04:42:38;;;;;;;8.43;5.20;;;;;;;10.25;69.86;101444.44;4133688;28;20049;-63
2022/10/09 04:44:41;;;;;;;8.77;4.85;;;;;;;10.24;70.27;101442.72;4150215;28;20034;-64
2022/10/09 04:46:43;;;;;;;11.18;5.60;;;;;;;10.27;69.83;101440.19;4148396;28;20049;-63
2022/10/09 04:48:47;;;;;;;9.27;5.25;;;;;;;10.26;69.82;101446.22;4157170;28;20045;-63
2022/10/09 04:50:49;;;;;;;9.63;4.78;;;;;;;10.21;69.32;101448.69;4146550;28;20518;-63
2022/10/09 04:52:52;;;;;;;11.02;4.70;;;;;;;10.21;69.65;101435.69;4147061;28;20046;-63
2022/10/09 04:54:55;;;;;;;12.52;4.97;;;;;;;10.09;70.01;101443.97;4159533;28;20049;-63
2022/10/09 04:56:58;;;;;;;12.00;6.15;;;;;;;10.12;70.12;101445.81;4133177;28;20437;-63
2022/10/09 04:59:02;;;;;;;9.57;5.82;;;;;;;10.10;70.01;101442.25;4137212;28;20045;-63
2022/10/09 05:01:07;;;;;;;10.43;5.40;;;;;;;10.10;69.87;101447.44;4161287;28;20403;-63
2022/10/09 05:03:10;;;;;;;;;;;;;;;9.95;70.83;101442.66;4153374;28;20041;-63
2022/10/09 05:05:13;;;;;;;11.95;5.60;;;;;;;9.99;70.56;101439.31;4160931;28;19921;-63
2022/10/09 05:07:15;;;;;;;10.80;6.05;;;;;;;10.07;70.29;101440.44;4164365;28;20068;-63
2022/10/09 05:09:18;;;;;;;7.50;4.57;;;;;;;10.02;70.17;101439.41;4163874;28;20562;-63
2022/10/09 05:11:24;;;;;;;9.77;4.55;;;;;;;9.99;70.62;101436.72;4164109;28;20449;-63
2022/10/09 05:13:29;;;;;;;9.13;4.95;;;;;;;9.96;70.39;101440.09;4131376;28;20463;-63
2022/10/09 05:15:36;;;;;;;12.48;5.20;;;;;;;9.98;70.05;101450.53;4147919;28;20526;-63
2022/10/09 05:17:39;;;;;;;11.88;5.93;;;;;;;10.00;70.11;101450.59;4157924;28;20038;-63
2022/10/09 05:19:41;;;;;;;11.38;5.47;;;;;;;10.02;70.18;101448.94;4149213;28;20080;-63
2022/10/09 05:21:44;;;;;;;9.25;5.30;;;;;;;10.00;70.50;101448.88;4159026;28;20127;-63
2022/10/09 05:23:48;;;;;;;14.23;5.90;;;;;;;10.02;69.86;101449.81;4162668;28;20041;-64
2022/10/09 05:25:54;;;;;;;13.85;5.07;;;;;;;9.99;69.73;101449.72;4148181;28;20046;-63
2022/10/09 05:27:59;;;;;;;18.02;5.72;;;;;;;9.95;70.18;101442.66;4157494;28;20030;-63
2022/10/09 05:30:01;;;;;;;13.75;4.95;;;;;;;9.88;70.57;101443.28;4148635;28;20078;-63
2022/10/09 05:32:06;;;;;;;8.25;4.55;;;;;;;9.87;71.10;101452.81;4151605;28;20041;-63
2022/10/09 05:34:09;;;;;;;12.10;4.70;;;;;;;9.81;70.86;101447.38;4144834;28;20050;-63
2022/10/09 05:36:12;;;;;;;9.02;4.72;;;;;;;9.76;70.95;101452.41;4155844;28;20042;-63
2022/10/09 05:38:14;;;;;;;10.07;4.90;;;;;;;9.77;71.49;101454.19;4147538;28;20447;-63
2022/10/09 05:40:17;;;;;;;13.52;5.97;;;;;;;9.84;70.55;101449.19;4145756;28;20072;-64
2022/10/09 05:42:20;;;;;;;15.20;5.57;;;;;;;9.85;70.35;101457.03;4155521;28;20207;-63
2022/10/09 05:44:23;;;;;;;14.73;5.50;;;;;;;9.85;70.61;101457.03;4151997;28;20066;-63
2022/10/09 05:46:26;;;;;;;10.65;4.82;;;;;;;9.79;70.51;101457.72;4160667;28;20048;-62
2022/10/09 05:48:30;;;;;;;15.27;6.05;;;;;;;9.78;70.44;101463.75;4141103;28;20030;-63
2022/10/09 05:50:33;;;;;;;10.48;5.68;;;;;;;9.76;70.92;101451.56;4159979;28;20454;-63
2022/10/09 05:52:37;;;;;;;13.43;5.35;;;;;;;9.75;71.01;101455.88;4156864;28;20033;-63
2022/10/09 05:54:40;;;;;;;12.80;5.95;;;;;;;9.82;71.22;101458.66;4143532;28;20463;-63
2022/10/09 05:56:44;;;;;;;10.63;5.57;;;;;;;9.96;70.89;101454.81;4150309;28;20428;-63
2022/10/09 05:58:50;;;;;;;10.82;5.65;;;;;;;9.99;69.99;101452.31;4147358;28;20076;-63
2022/10/09 06:00:53;;;;;;;10.05;4.63;;;;;;;9.93;70.11;101447.78;4165021;28;20553;-63
2022/10/09 06:02:56;;;;;;;10.45;5.70;;;;;;;9.93;69.64;101457.31;4167071;28;20064;-62
2022/10/09 06:05:00;;;;;;;12.82;5.68;;;;;;;9.90;70.31;101449.41;4165520;28;20037;-64
2022/10/09 06:07:03;;;;;;;8.90;5.45;;;;;;;9.93;69.72;101447.78;4158760;28;20049;-63
2022/10/09 06:09:07;;;;;;;14.55;6.15;;;;;;;9.91;69.99;101448.56;4146637;28;20109;-64
2022/10/09 06:11:12;;;;;;;10.13;5.53;;;;;;;9.90;69.50;101439.00;4161188;28;20048;-64
2022/10/09 06:13:15;;;;;;;8.65;5.20;;;;;;;9.87;69.43;101444.09;4160961;28;20076;-64
2022/10/09 06:15:18;;;;;;;12.35;6.03;;;;;;;9.78;70.13;101453.38;4147912;28;20480;-65
2022/10/09 06:17:21;;;;;;;10.55;5.10;;;;;;;9.71;70.57;101453.09;4148876;28;20108;-64
2022/10/09 06:19:24;;;;;;;14.40;6.45;;;;;;;9.75;70.14;101455.88;4166330;28;20041;-64
2022/10/09 06:21:28;;;;;;;10.07;6.20;;;;;;;9.83;70.07;101457.81;4166732;28;20045;-63
2022/10/09 06:23:31;;;;;;;12.63;5.75;;;;;;;9.75;69.98;101455.88;4165704;28;20088;-64
2022/10/09 06:25:34;;;;;;;11.80;5.10;;;;;;;9.74;70.56;101463.63;4165583;28;20506;-61
2022/10/09 06:27:37;;;;;;;13.20;5.88;;;;;;;9.79;70.52;101468.09;4166307;28;20450;-62
2022/10/09 06:29:41;;;;;;;12.73;6.30;;;;;;;9.82;69.74;101462.13;4165118;28;20064;-63
2022/10/09 06:31:44;;;;;;;10.90;5.60;;;;;;;9.84;69.51;101454.41;4154923;28;20040;-65
2022/10/09 06:33:48;;;;;;;13.23;6.43;;;;;;;9.85;70.20;101457.03;4164163;28;20396;-64
2022/10/09 06:35:51;;;;;;;12.13;6.47;;;;;;;9.82;69.67;101459.53;4155532;28;20407;-65
2022/10/09 06:37:55;;;;;;;11.88;6.53;;;;;;;9.84;69.81;101459.59;4165336;28;20049;-65
2022/10/09 06:39:58;;;;;;;11.95;6.50;;;;;;;9.82;69.65;101462.13;4156375;28;20056;-65
2022/10/09 06:42:00;;;;;;;9.35;5.57;;;;;;;9.79;70.19;101462.91;4158484;28;20108;-67
2022/10/09 06:44:15;;;;;;;12.48;6.10;;;;;;;9.79;70.06;101465.50;4145984;28;20038;-64
2022/10/09 06:46:20;;;;;;;12.27;6.43;;;;;;;9.83;69.71;101457.81;4161815;28;20494;-64
2022/10/09 06:48:23;;;;;;;11.15;6.13;;;;;;;9.85;69.98;101466.56;4158336;28;20045;-63
2022/10/09 06:50:26;;;;;;;12.68;6.10;;;;;;;9.84;69.63;101462.19;4161995;28;20504;-64
2022/10/09 06:52:29;;;;;;;9.27;5.50;;;;;;;9.78;70.27;101455.97;4147188;28;20590;-63
2022/10/09 06:54:33;;;;;;;10.45;5.90;;;;;;;9.81;70.36;101464.69;4154226;28;20649;-63
2022/10/09 06:56:36;;;;;;;9.32;5.60;;;;;;;9.75;70.18;101467.94;4161286;28;20076;-63
2022/10/09 06:59:00;;;;;;;12.93;6.78;;;;;;;9.89;69.42;101465.84;4160010;28;20118;-63
2022/10/09 07:01:05;;;;;;;16.45;6.63;;;;;;;9.94;69.44;101464.25;4140130;28;20100;-63
2022/10/09 07:03:08;;;;;;;;;;;;;;;9.87;69.86;101463.19;4155811;28;20048;-63
2022/10/09 07:05:11;;;;;;;9.13;5.10;;;;;;;9.98;69.47;101468.72;4126876;28;20044;-63
2022/10/09 07:07:16;;;;;;;10.38;5.57;;;;;;;9.87;69.93;101470.97;4158961;28;20335;-66
2022/10/09 07:09:23;;;;;;;8.52;4.80;;;;;;;9.88;69.84;101461.47;4142784;28;20593;-65
2022/10/09 07:11:30;;;;;;;10.40;5.95;;;;;;;10.03;69.42;101466.28;4155181;28;20491;-65
2022/10/09 07:13:33;;;;;;;12.13;6.80;;;;;;;10.06;69.24;101467.28;4158316;28;20041;-64
2022/10/09 07:15:35;;;;;;;14.75;7.10;;;;;;;10.19;68.76;101465.06;4147765;28;20076;-64
2022/10/09 07:17:38;;;;;;;11.02;6.15;;;;;;;10.27;68.57;101463.59;4160214;28;20056;-64
2022/10/09 07:19:41;;;;;;;10.90;6.35;;;;;;;10.22;68.42;101467.75;4157771;28;20038;-64
2022/10/09 07:21:46;;;;;;;11.70;6.18;;;;;;;10.03;69.49;101464.56;4156310;28;20113;-64
2022/10/09 07:23:50;;;;;;;10.63;6.22;;;;;;;10.09;69.05;101469.06;4161035;28;20049;-64
2022/10/09 07:25:52;;;;;;;11.65;6.20;;;;;;;10.08;68.74;101475.13;4160868;28;20086;-64
2022/10/09 07:27:56;;;;;;;12.63;6.53;;;;;;;10.13;69.08;101473.53;4159955;28;20421;-64
2022/10/09 07:30:00;;;;;;;13.82;5.60;;;;;;;10.10;69.70;101473.44;4147939;28;20038;-64
2022/10/09 07:32:02;;;;;;;11.35;6.60;;;;;;;10.19;69.68;101467.66;4160992;28;20388;-64
2022/10/09 07:34:12;;;;;;;10.00;6.30;;;;;;;10.14;70.26;101470.09;4155233;28;20046;-64
2022/10/09 07:36:15;;;;;;;8.40;5.05;;;;;;;10.11;69.56;101465.69;4162582;28;20033;-64
2022/10/09 07:38:18;;;;;;;16.77;7.15;;;;;;;10.24;69.80;101466.09;4161263;28;20044;-64
2022/10/09 07:40:21;;;;;;;9.63;5.53;;;;;;;10.34;68.98;101464.69;4146405;28;20065;-64
2022/10/09 07:42:25;;;;;;;17.15;6.80;;;;;;;10.48;68.24;101456.50;4152433;28;20038;-64
2022/10/09 07:44:30;;;;;;;11.02;7.15;;;;;;;10.57;68.27;101465.41;4161505;28;20049;-64
2022/10/09 07:46:33;;;;;;;16.25;6.85;;;;;;;10.59;67.40;101459.41;4158531;28;20387;-63
2022/10/09 07:48:36;;;;;;;10.38;6.00;;;;;;;10.48;68.21;101461.69;4162545;28;20037;-63
2022/10/09 07:50:40;;;;;;;11.18;6.60;;;;;;;10.64;67.91;101464.75;4163770;28;20091;-63
2022/10/09 07:52:43;;;;;;;11.20;5.88;;;;;;;10.63;67.90;101460.38;4161626;28;20408;-63
2022/10/09 07:54:45;;;;;;;10.95;6.10;;;;;;;10.63;68.17;101461.28;4141788;28;20045;-62
2022/10/09 07:56:48;;;;;;;9.20;5.30;;;;;;;10.63;68.20;101456.06;4157953;28;20211;-62
2022/10/09 07:58:52;;;;;;;10.00;5.57;;;;;;;10.71;68.11;101460.63;4159004;28;20040;-62
2022/10/09 08:00:56;;;;;;;11.40;5.85;;;;;;;10.76;68.54;101456.44;4158994;28;20042;-62
2022/10/09 08:02:59;;;;;;;11.88;6.38;;;;;;;10.89;68.62;101455.06;4143946;28;20049;-62
2022/10/09 08:05:02;;;;;;;10.57;5.68;;;;;;;10.91;68.57;101458.63;4126985;28;20050;-63
2022/10/09 08:07:05;;;;;;;10.60;5.65;;;;;;;10.91;68.53;101456.03;4160512;28;20042;-62
2022/10/09 08:09:08;;;;;;;9.07;5.45;;;;;;;10.95;68.70;101450.03;4160670;28;20120;-62
2022/10/09 08:11:13;;;;;;;14.77;6.35;;;;;;;11.12;68.35;101456.59;4158130;28;20099;-62
2022/10/09 08:13:16;;;;;;;8.88;5.85;;;;;;;11.20;67.46;101454.25;4155130;28;20099;-63
2022/10/09 08:15:18;;;;;;;14.45;5.80;;;;;;;11.26;67.92;101453.53;4152237;28;20546;-63
2022/10/09 08:17:22;;;;;;;11.65;5.10;;;;;;;11.34;67.20;101434.63;4148350;28;20038;-62
2022/10/09 08:19:25;;;;;;;12.68;7.28;;;;;;;11.43;67.49;101441.81;4152690;28;20048;-62
2022/10/09 08:21:29;;;;;;;22.90;8.77;;;;;;;11.49;66.90;101444.59;4164826;28;20419;-62
2022/10/09 08:23:31;;;;;;;17.48;8.00;;;;;;;11.59;66.73;101442.22;4162531;28;20042;-62
2022/10/09 08:25:35;;;;;;;16.35;6.05;;;;;;;11.72;65.69;101438.22;4159428;28;20030;-62
2022/10/09 08:27:39;;;;;;;10.18;6.15;;;;;;;11.81;65.96;101428.91;4153044;28;20395;-63
2022/10/09 08:29:43;;;;;;;9.40;5.63;;;;;;;11.84;65.58;101433.31;4135879;28;20042;-62
2022/10/09 08:31:47;;;;;;;9.55;5.75;;;;;;;11.92;65.42;101442.19;4155611;28;20049;-63
2022/10/09 08:33:55;;;;;;;10.45;6.03;;;;;;;12.05;65.38;101435.59;4155790;28;20055;-63
2022/10/09 08:36:06;;;;;;;8.95;5.60;;;;;;;12.02;65.16;101432.91;4137417;28;20534;-62
2022/10/09 08:38:10;;;;;;;9.60;4.90;;;;;;;12.07;64.89;101420.88;4164340;28;20084;-63
2022/10/09 08:40:44;;;;;;;8.70;4.43;;;;;;;12.09;65.13;101418.28;4164404;28;20041;-63
2022/10/09 08:42:52;;;;;;;17.73;5.45;;;;;;;12.36;63.73;101420.66;4163338;28;20103;-63
2022/10/09 08:44:56;;;;;;;9.95;4.78;;;;;;;12.39;63.80;101425.94;4145869;28;20499;-63
2022/10/09 08:47:06;;;;;;;9.27;4.50;;;;;;;12.38;64.17;101424.16;4163914;28;20088;-62
2022/10/09 08:49:21;;;;;;;9.88;4.25;;;;;;;12.44;64.17;101424.34;4146603;28;20089;-62
2022/10/09 08:51:28;;;;;;;9.40;4.72;;;;;;;12.56;64.08;101429.78;4146630;28;20052;-62
2022/10/09 08:53:39;;;;;;;10.93;4.80;;;;;;;12.61;64.06;101423.81;4150983;28;20129;-64
2022/10/09 08:55:49;;;;;;;10.10;4.55;;;;;;;12.64;64.12;101423.88;4147764;28;20070;-62
2022/10/09 08:57:54;;;;;;;8.50;3.80;;;;;;;12.74;63.98;101420.59;4146634;28;20101;-62
2022/10/09 08:59:57;;;;;;;6.10;3.33;;;;;;;12.85;64.08;101418.19;4146225;28;20042;-63
2022/10/09 09:02:12;;;;;;;13.43;7.38;;;;;;;13.04;63.48;101419.44;4155540;28;20131;-62
2022/10/09 09:04:31;;;;;;;11.95;6.72;;;;;;;13.25;62.56;101417.25;4133214;28;20065;-62
2022/10/09 09:06:40;;;;;;;9.82;5.78;;;;;;;13.26;62.58;101408.56;4147725;28;20480;-65
2022/10/09 09:08:51;;;;;;;7.88;4.57;;;;;;;13.53;61.53;101403.84;4163203;28;20556;-63
2022/10/09 09:11:07;;;;;;;7.25;4.32;;;;;;;13.67;61.53;101409.28;4163934;28;20091;-62
2022/10/09 09:13:28;;;;;;;7.88;3.92;;;;;;;13.59;61.28;101399.63;4140062;28;20170;-64
2022/10/09 09:15:43;;;;;;;11.98;3.92;;;;;;;13.62;61.86;101398.75;4147817;28;20088;-64
2022/10/09 09:17:54;;;;;;;6.25;3.40;;;;;;;13.75;61.59;101389.41;4149317;28;20216;-64
2022/10/09 09:20:05;;;;;;;10.05;4.57;;;;;;;14.03;60.42;101389.81;4156254;28;20053;-64
2022/10/09 09:22:11;;;;;;;7.95;3.65;;;;;;;14.03;60.49;101385.50;4155287;28;20046;-64
2022/10/09 09:24:18;;;;;;;8.20;4.10;;;;;;;14.05;60.44;101383.78;4161016;28;20033;-65
2022/10/09 09:26:23;;;;;;;8.80;2.95;;;;;;;14.12;60.67;101379.53;4162484;28;20124;-64
2022/10/09 09:28:29;;;;;;;9.05;3.80;;;;;;;14.32;59.18;101377.16;4145336;28;20442;-64
2022/10/09 09:30:35;;;;;;;7.30;3.47;;;;;;;14.45;59.60;101379.06;4155736;28;20037;-64
2022/10/09 09:32:42;;;;;;;8.63;3.47;;;;;;;14.52;60.06;101380.06;4157981;28;20042;-64
2022/10/09 09:34:45;;;;;;;5.25;2.53;;;;;;;14.68;57.89;101364.59;4153089;28;20053;-64
2022/10/09 09:36:54;;;;;;;7.35;3.15;;;;;;;14.79;58.25;101373.41;4162834;28;20072;-65
2022/10/09 09:38:57;;;;;;;7.75;3.90;;;;;;;14.77;58.34;101369.91;4163573;28;20037;-64